createdAt,value
2018-07-20T00:00:03.031Z,99773.59
2018-07-20T00:02:33.167Z,99781.69
2018-07-20T00:05:03.463Z,99777.64
2018-07-20T00:07:33.610Z,99775.16
2018-07-20T00:10:03.924Z,99771.89
2018-07-20T00:12:34.572Z,99773.80
2018-07-20T00:15:05.330Z,99773.00
2018-07-20T00:17:35.638Z,99773.58
2018-07-20T00:20:06.625Z,99769.25
2018-07-20T00:22:36.781Z,99769.30
2018-07-20T00:25:07.119Z,99766.28
2018-07-20T00:27:37.438Z,99766.86
2018-07-20T00:30:08.203Z,99764.66
2018-07-20T00:32:38.919Z,99769.48
2018-07-20T00:35:10.021Z,99767.84
2018-07-20T00:37:40.349Z,99760.77
2018-07-20T00:40:10.553Z,99763.99
2018-07-20T00:42:40.899Z,99759.88
2018-07-20T00:45:11.764Z,99758.80
2018-07-20T00:47:42.490Z,99754.42
2018-07-20T00:50:12.978Z,99760.36
2018-07-20T00:52:43.236Z,99757.94
2018-07-20T00:55:13.668Z,99758.75
2018-07-20T00:57:44.623Z,99755.93
2018-07-20T01:00:14.977Z,99756.35
2018-07-20T01:02:45.892Z,99765.27
2018-07-20T01:05:16.483Z,99756.28
2018-07-20T01:07:47.433Z,99758.69
2018-07-20T01:10:17.827Z,99758.70
2018-07-20T01:12:48.221Z,99755.14
2018-07-20T01:15:18.494Z,99756.46
2018-07-20T01:17:49.541Z,99758.02
2018-07-20T01:20:19.921Z,99760.18
2018-07-20T01:22:50.300Z,99752.34
2018-07-20T01:25:21.118Z,99758.55
2018-07-20T01:27:51.709Z,99758.00
2018-07-20T01:30:22.062Z,99753.40
2018-07-20T01:32:52.305Z,99749.91
2018-07-20T01:35:23.188Z,99758.55
2018-07-20T01:37:54.131Z,99757.72
2018-07-20T01:40:24.402Z,99753.15
2018-07-20T01:42:55.547Z,99760.10
2018-07-20T01:45:26.166Z,99755.22
2018-07-20T01:47:56.494Z,99756.16
2018-07-20T01:50:27.022Z,99752.09
2018-07-20T01:52:57.320Z,99753.52
2018-07-20T01:55:27.785Z,99750.16
2018-07-20T01:57:58.080Z,99756.77
2018-07-20T02:00:28.319Z,99749.04
2018-07-20T02:02:58.872Z,99749.30
2018-07-20T02:05:29.137Z,99759.84
2018-07-20T02:07:59.721Z,99755.02
2018-07-20T02:10:30.024Z,99760.93
2018-07-20T02:13:00.330Z,99759.47
2018-07-20T02:15:30.551Z,99754.06
2018-07-20T02:18:00.907Z,99756.17
2018-07-20T02:20:31.850Z,99761.25
2018-07-20T02:23:02.008Z,99758.22
2018-07-20T02:25:38.170Z,99760.85
2018-07-20T02:28:10.958Z,99764.05
2018-07-20T02:30:43.757Z,99764.26
2018-07-20T02:33:17.369Z,99762.76
2018-07-20T02:35:48.342Z,99761.33
2018-07-20T02:38:20.099Z,99761.56
2018-07-20T02:40:51.080Z,99765.25
2018-07-20T02:43:21.753Z,99764.86
2018-07-20T02:45:52.119Z,99763.43
2018-07-20T02:48:22.799Z,99761.24
2018-07-20T02:50:53.081Z,99754.61
2018-07-20T02:53:24.741Z,99756.38
2018-07-20T02:55:55.682Z,99756.80
2018-07-20T02:58:26.304Z,99753.88
2018-07-20T03:00:56.617Z,99756.58
2018-07-20T03:03:27.773Z,99760.87
2018-07-20T03:05:58.067Z,99755.64
2018-07-20T03:08:29.168Z,99765.08
2018-07-20T03:10:59.434Z,99766.42
2018-07-20T03:13:29.924Z,99766.80
2018-07-20T03:16:00.185Z,99765.55
2018-07-20T03:18:30.388Z,99768.59
2018-07-20T03:21:00.920Z,99764.27
2018-07-20T03:23:31.476Z,99767.42
2018-07-20T03:26:01.675Z,99772.84
2018-07-20T03:28:32.029Z,99770.50
2018-07-20T03:31:02.218Z,99771.31
2018-07-20T03:33:32.485Z,99772.03
2018-07-20T03:36:03.580Z,99771.25
2018-07-20T03:38:33.839Z,99773.94
2018-07-20T03:41:04.178Z,99773.16
2018-07-20T03:43:34.497Z,99767.95
2018-07-20T03:46:04.841Z,99761.88
2018-07-20T03:48:35.164Z,99769.83
2018-07-20T03:51:06.048Z,99772.14
2018-07-20T03:53:36.942Z,99779.02
2018-07-20T03:56:07.237Z,99776.53
2018-07-20T03:58:37.502Z,99774.07
2018-07-20T04:01:07.761Z,99777.55
2018-07-20T04:03:38.785Z,99773.22
2018-07-20T04:06:09.324Z,99767.99
2018-07-20T04:08:39.857Z,99773.36
2018-07-20T04:11:10.213Z,99768.66
2018-07-20T04:13:40.818Z,99768.88
2018-07-20T04:16:11.089Z,99767.91
2018-07-20T04:18:42.481Z,99769.89
2018-07-20T04:21:12.870Z,99763.21
2018-07-20T04:23:43.164Z,99770.86
2018-07-20T04:26:13.576Z,99766.62
2018-07-20T04:28:45.473Z,99770.48
2018-07-20T04:31:15.816Z,99769.42
2018-07-20T04:33:46.077Z,99769.44
2018-07-20T04:36:17.267Z,99775.70
2018-07-20T04:38:47.757Z,99775.68
2018-07-20T04:41:18.090Z,99771.59
2018-07-20T04:43:48.361Z,99778.33
2018-07-20T04:46:18.987Z,99773.13
2018-07-20T04:48:49.635Z,99775.29
2018-07-20T04:51:20.692Z,99775.81
2018-07-20T04:53:51.085Z,99776.86
2018-07-20T04:56:21.278Z,99777.93
2018-07-20T04:58:51.560Z,99777.05
2018-07-20T05:01:22.150Z,99777.28
2018-07-20T05:03:52.570Z,99776.65
2018-07-20T05:06:23.056Z,99777.98
2018-07-20T05:08:53.707Z,99777.39
2018-07-20T05:11:24.424Z,99769.73
2018-07-20T05:13:55.282Z,99770.79
2018-07-20T05:16:25.521Z,99769.84
2018-07-20T05:18:55.786Z,99767.14
2018-07-20T05:21:27.096Z,99764.11
2018-07-20T05:23:58.131Z,99762.97
2018-07-20T05:26:28.490Z,99761.01
2018-07-20T05:28:58.848Z,99764.09
2018-07-20T05:31:30.040Z,99756.09
2018-07-20T05:34:00.289Z,99763.30
2018-07-20T05:36:31.159Z,99760.50
2018-07-20T05:39:02.075Z,99759.27
2018-07-20T05:41:32.637Z,99765.13
2018-07-20T05:44:03.547Z,99762.78
2018-07-20T05:46:34.525Z,99770.55
2018-07-20T05:49:05.406Z,99760.41
2018-07-20T05:51:36.334Z,99762.89
2018-07-20T05:54:07.291Z,99765.28
2018-07-20T05:56:38.235Z,99761.69
2018-07-20T05:59:09.278Z,99756.45
2018-07-20T06:01:40.222Z,99761.46
2018-07-20T06:04:11.037Z,99762.48
2018-07-20T06:06:42.241Z,99758.23
2018-07-20T06:09:13.575Z,99759.14
2018-07-20T06:11:44.539Z,99760.45
2018-07-20T06:14:16.457Z,99758.23
2018-07-20T06:16:47.567Z,99758.33
2018-07-20T06:19:18.506Z,99763.93
2018-07-20T06:21:50.241Z,99758.61
2018-07-20T06:24:22.318Z,99762.07
2018-07-20T06:26:53.190Z,99760.70
2018-07-20T06:29:23.809Z,99754.65
2018-07-20T06:31:54.685Z,99756.08
2018-07-20T06:34:25.477Z,99756.89
2018-07-20T06:36:56.279Z,99751.27
2018-07-20T06:39:26.610Z,99749.70
2018-07-20T06:41:57.407Z,99759.48
2018-07-20T06:44:28.214Z,99759.18
2018-07-20T06:46:59.434Z,99755.33
2018-07-20T06:49:30.537Z,99759.44
2018-07-20T06:52:01.731Z,99762.27
2018-07-20T06:54:32.904Z,99752.05
2018-07-20T06:57:03.541Z,99761.81
2018-07-20T06:59:34.081Z,99755.47
2018-07-20T07:02:04.709Z,99757.30
2018-07-20T07:04:35.341Z,99760.84
2018-07-20T07:07:06.189Z,99762.93
2018-07-20T07:09:36.905Z,99762.70
2018-07-20T07:12:07.629Z,99766.00
2018-07-20T07:14:37.958Z,99768.38
2018-07-20T07:17:08.630Z,99764.13
2018-07-20T07:19:39.258Z,99766.01
2018-07-20T07:22:10.009Z,99766.16
2018-07-20T07:24:41.340Z,99772.66
2018-07-20T07:27:11.777Z,99778.08
2018-07-20T07:29:42.129Z,99776.71
2018-07-20T07:32:12.611Z,99771.68
2018-07-20T07:34:42.990Z,99772.48
2018-07-20T07:37:13.421Z,99775.64
2018-07-20T07:39:44.565Z,99774.77
2018-07-20T07:42:15.060Z,99777.36
2018-07-20T07:44:45.540Z,99779.34
2018-07-20T07:47:15.988Z,99777.77
2018-07-20T07:49:46.393Z,99784.16
2018-07-20T07:52:16.867Z,99786.10
2018-07-20T07:54:47.289Z,99784.27
2018-07-20T07:57:17.934Z,99786.22
2018-07-20T07:59:48.387Z,99782.86
2018-07-20T08:02:18.814Z,99784.63
2018-07-20T08:04:48.933Z,99777.41
2018-07-20T08:07:19.485Z,99776.69
2018-07-20T08:09:50.150Z,99779.52
2018-07-20T08:12:20.794Z,99783.62
2018-07-20T08:14:50.849Z,99788.43
2018-07-20T08:17:21.253Z,99783.30
2018-07-20T08:19:51.629Z,99771.66
2018-07-20T08:22:22.023Z,99776.41
2018-07-20T08:24:52.417Z,99779.82
2018-07-20T08:27:22.725Z,99778.91
2018-07-20T08:29:52.900Z,99779.86
2018-07-20T08:32:23.288Z,99778.09
2018-07-20T08:34:53.709Z,99775.13
2018-07-20T08:37:24.169Z,99776.61
2018-07-20T08:39:54.610Z,99779.06
2018-07-20T08:42:25.181Z,99781.63
2018-07-20T08:44:56.105Z,99771.68
2018-07-20T08:47:26.946Z,99771.69
2018-07-20T08:49:57.580Z,99773.88
2018-07-20T08:52:28.140Z,99770.04
2018-07-20T08:54:58.417Z,99776.23
2018-07-20T08:57:28.877Z,99776.45
2018-07-20T08:59:59.265Z,99773.72
2018-07-20T09:02:29.966Z,99772.30
2018-07-20T09:05:00.602Z,99776.58
2018-07-20T09:07:31.417Z,99776.95
2018-07-20T09:10:01.713Z,99773.05
2018-07-20T09:12:32.569Z,99767.64
2018-07-20T09:15:03.484Z,99769.35
2018-07-20T09:17:33.923Z,99765.45
2018-07-20T09:20:04.989Z,99760.27
2018-07-20T09:22:35.735Z,99762.81
2018-07-20T09:25:06.363Z,99757.27
2018-07-20T09:27:37.181Z,99751.47
2018-07-20T09:30:08.853Z,99751.81
2018-07-20T09:32:39.421Z,99762.91
2018-07-20T09:35:10.158Z,99759.83
2018-07-20T09:37:40.997Z,99759.67
2018-07-20T09:40:11.906Z,99761.33
2018-07-20T09:42:42.988Z,99764.94
2018-07-20T09:45:13.687Z,99760.18
2018-07-20T09:47:44.454Z,99766.43
2018-07-20T09:50:15.021Z,99754.97
2018-07-20T09:52:45.824Z,99755.31
2018-07-20T09:55:17.265Z,99748.66
2018-07-20T09:57:47.813Z,99745.70
2018-07-20T10:00:23.880Z,99743.58
2018-07-20T10:02:54.696Z,99753.82
2018-07-20T10:05:25.245Z,99745.89
2018-07-20T10:07:55.836Z,99742.43
2018-07-20T10:10:26.875Z,99749.67
2018-07-20T10:12:57.360Z,99749.41
2018-07-20T10:15:28.262Z,99746.76
2018-07-20T10:17:59.063Z,99747.08
2018-07-20T10:20:30.075Z,99747.50
2018-07-20T10:23:01.943Z,99743.13
2018-07-20T10:25:33.315Z,99752.13
2018-07-20T10:28:04.693Z,99743.61
2018-07-20T10:30:35.631Z,99744.48
2018-07-20T10:33:07.623Z,99743.33
2018-07-20T10:35:38.745Z,99742.91
2018-07-20T10:38:10.350Z,99734.60
2018-07-20T10:40:41.054Z,99739.30
2018-07-20T10:43:11.850Z,99728.75
2018-07-20T10:45:42.851Z,99733.09
2018-07-20T10:48:13.574Z,99730.58
2018-07-20T10:50:44.516Z,99726.23
2018-07-20T10:53:15.181Z,99727.67
2018-07-20T10:55:46.105Z,99722.67
2018-07-20T10:58:16.611Z,99726.98
2018-07-20T11:00:47.542Z,99727.50
2018-07-20T11:03:19.156Z,99718.95
2018-07-20T11:05:49.997Z,99718.03
2018-07-20T11:08:20.499Z,99713.84
2018-07-20T11:10:51.542Z,99713.97
2018-07-20T11:13:22.313Z,99721.39
2018-07-20T11:15:53.345Z,99713.38
2018-07-20T11:18:24.267Z,99715.84
2018-07-20T11:20:55.138Z,99714.91
2018-07-20T11:23:25.962Z,99715.03
2018-07-20T11:25:56.865Z,99713.80
2018-07-20T11:28:27.773Z,99712.47
2018-07-20T11:30:58.600Z,99709.75
2018-07-20T11:33:29.955Z,99707.84
2018-07-20T11:36:00.897Z,99698.83
2018-07-20T11:38:31.807Z,99707.54
2018-07-20T11:41:02.587Z,99695.50
2018-07-20T11:43:33.372Z,99701.39
2018-07-20T11:46:04.428Z,99698.81
2018-07-20T11:48:35.401Z,99696.73
2018-07-20T11:51:06.294Z,99692.14
2018-07-20T11:53:37.081Z,99697.98
2018-07-20T11:56:07.635Z,99689.34
2018-07-20T11:58:38.339Z,99679.25
2018-07-20T12:01:08.960Z,99685.41
2018-07-20T12:03:39.729Z,99680.29
2018-07-20T12:06:10.640Z,99683.14
2018-07-20T12:08:41.206Z,99680.39
2018-07-20T12:11:12.175Z,99683.67
2018-07-20T12:13:42.677Z,99681.40
2018-07-20T12:16:13.241Z,99677.20
2018-07-20T12:18:43.745Z,99682.47
2018-07-20T12:21:14.673Z,99685.62
2018-07-20T12:23:45.314Z,99688.33
2018-07-20T12:26:16.270Z,99687.26
2018-07-20T12:28:47.074Z,99688.77
2018-07-20T12:31:17.950Z,99679.28
2018-07-20T12:33:48.685Z,99681.22
2018-07-20T12:36:19.677Z,99682.83
2018-07-20T12:38:50.842Z,99676.02
2018-07-20T12:41:21.708Z,99680.44
2018-07-20T12:43:52.625Z,99671.72
2018-07-20T12:46:23.213Z,99672.04
2018-07-20T12:48:53.959Z,99665.14
2018-07-20T12:51:25.345Z,99662.86
2018-07-20T12:53:55.879Z,99661.53
2018-07-20T12:56:27.024Z,99655.56
2018-07-20T12:58:57.679Z,99661.39
2018-07-20T13:01:29.045Z,99652.11
2018-07-20T13:03:59.542Z,99656.56
2018-07-20T13:06:30.476Z,99647.99
2018-07-20T13:09:00.970Z,99653.86
2018-07-20T13:11:31.986Z,99652.48
2018-07-20T13:14:03.443Z,99650.27
2018-07-20T13:16:34.623Z,99649.23
2018-07-20T13:19:05.602Z,99651.30
2018-07-20T13:21:36.340Z,99648.52
2018-07-20T13:24:07.183Z,99645.53
2018-07-20T13:26:39.587Z,99639.33
2018-07-20T13:29:11.415Z,99638.77
2018-07-20T13:31:42.089Z,99633.97
2018-07-20T13:34:12.722Z,99636.64
2018-07-20T13:36:43.612Z,99635.27
2018-07-20T13:39:14.149Z,99628.70
2018-07-20T13:41:45.134Z,99634.20
2018-07-20T13:44:15.765Z,99630.05
2018-07-20T13:46:46.994Z,99629.89
2018-07-20T13:49:17.659Z,99626.91
2018-07-20T13:51:48.217Z,99627.87
2018-07-20T13:54:18.889Z,99625.25
2018-07-20T13:56:50.477Z,99621.23
2018-07-20T13:59:21.597Z,99621.57
2018-07-20T14:01:52.098Z,99619.39
2018-07-20T14:04:22.661Z,99623.35
2018-07-20T14:06:53.253Z,99620.08
2018-07-20T14:09:23.998Z,99613.31
2018-07-20T14:11:54.662Z,99618.34
2018-07-20T14:14:25.224Z,99600.38
2018-07-20T14:16:55.738Z,99607.48
2018-07-20T14:19:26.563Z,99599.44
2018-07-20T14:21:57.161Z,99599.47
2018-07-20T14:24:27.762Z,99599.23
2018-07-20T14:26:58.342Z,99590.91
2018-07-20T14:29:29.344Z,99591.09
2018-07-20T14:31:59.986Z,99594.22
2018-07-20T14:34:31.593Z,99579.21
2018-07-20T14:37:02.193Z,99585.17
2018-07-20T14:39:32.627Z,99580.12
2018-07-20T14:42:03.087Z,99578.22
2018-07-20T14:44:33.736Z,99577.64
2018-07-20T14:47:04.376Z,99583.44
2018-07-20T14:49:34.925Z,99571.53
2018-07-20T14:52:05.637Z,99573.09
2018-07-20T14:54:36.173Z,99570.31
2018-07-20T14:57:06.800Z,99572.19
2018-07-20T14:59:37.464Z,99585.95
2018-07-20T15:02:08.204Z,99576.67
2018-07-20T15:04:38.917Z,99573.80
2018-07-20T15:07:09.548Z,99570.17
2018-07-20T15:09:40.112Z,99570.77
2018-07-20T15:12:11.031Z,99564.64
2018-07-20T15:14:41.644Z,99558.78
2018-07-20T15:17:12.490Z,99569.66
2018-07-20T15:19:43.129Z,99572.78
2018-07-20T15:22:13.712Z,99566.09
2018-07-20T15:24:44.945Z,99570.81
2018-07-20T15:27:15.585Z,99565.32
2018-07-20T15:29:46.288Z,99560.90
2018-07-20T15:32:16.832Z,99569.54
2018-07-20T15:34:47.489Z,99573.19
2018-07-20T15:37:18.634Z,99567.86
2018-07-20T15:39:49.268Z,99564.27
2018-07-20T15:42:19.905Z,99568.61
2018-07-20T15:51:01.566Z,99566.05
2018-07-20T15:53:36.251Z,99566.94
2018-07-20T15:56:03.077Z,99563.48
2018-07-20T16:23:43.208Z,99576.21
2018-07-20T16:26:17.579Z,99576.38
2018-07-20T16:32:03.431Z,99579.34
2018-07-20T16:34:47.714Z,99576.18
2018-07-20T16:37:20.215Z,99580.45
2018-07-20T16:43:04.743Z,99574.16
2018-07-20T16:45:40.326Z,99575.51
2018-07-20T16:48:34.468Z,99577.73
2018-07-20T16:51:17.503Z,99573.55
2018-07-20T16:53:51.103Z,99579.03
2018-07-20T16:56:24.560Z,99576.45
2018-07-20T16:58:57.440Z,99584.19
2018-07-20T17:01:40.939Z,99575.91
2018-07-20T17:07:12.523Z,99574.59
2018-07-20T17:09:56.203Z,99579.55
2018-07-20T17:12:42.242Z,99571.70
2018-07-20T17:15:15.526Z,99581.25
2018-07-20T17:18:01.539Z,99578.42
2018-07-20T17:20:34.087Z,99579.91
2018-07-20T17:23:08.048Z,99577.56
2018-07-20T17:25:48.867Z,99578.53
2018-07-20T17:28:21.952Z,99580.41
2018-07-20T17:31:06.036Z,99583.58
2018-07-20T17:33:38.190Z,99581.00
2018-07-20T17:36:33.148Z,99588.68
2018-07-20T17:39:20.610Z,99588.22
2018-07-20T17:41:53.626Z,99582.72
2018-07-20T17:44:38.164Z,99582.97
2018-07-20T17:47:29.355Z,99589.41
2018-07-20T17:53:00.397Z,99596.05
2018-07-20T17:55:33.156Z,99596.83
2018-07-20T17:58:07.641Z,99595.97
2018-07-20T18:00:39.601Z,99594.27
2018-07-20T18:03:28.726Z,99595.65
2018-07-20T18:06:00.792Z,99596.11
2018-07-20T18:08:33.889Z,99594.05
2018-07-20T18:11:06.334Z,99595.06
2018-07-20T18:13:39.064Z,99596.95
2018-07-20T18:16:12.102Z,99593.17
2018-07-20T18:18:43.932Z,99595.28
2018-07-20T18:21:16.276Z,99591.13
2018-07-20T18:23:48.592Z,99595.06
2018-07-20T18:26:36.874Z,99595.48
2018-07-20T18:32:17.989Z,99599.75
2018-07-20T18:37:50.818Z,99595.98
2018-07-20T18:40:20.629Z,99599.09
2018-07-20T18:42:50.463Z,99593.29
2018-07-20T18:45:20.921Z,99594.53
2018-07-20T18:47:57.190Z,99596.07
2018-07-20T18:50:35.815Z,99595.20
2018-07-20T18:53:09.447Z,99597.55
2018-07-20T18:55:42.115Z,99594.66
2018-07-20T18:58:20.002Z,99593.13
2018-07-20T19:00:56.242Z,99593.55
2018-07-20T19:06:35.776Z,99597.06
2018-07-20T19:09:23.662Z,99603.67
2018-07-20T19:12:06.804Z,99602.61
2018-07-20T19:14:50.260Z,99609.73
2018-07-20T19:17:22.711Z,99620.94
2018-07-20T19:20:12.559Z,99621.80
2018-07-20T19:22:48.601Z,99619.38
2018-07-20T19:25:23.038Z,99616.45
2018-07-20T19:27:56.826Z,99616.48
2018-07-20T19:33:30.057Z,99615.98
2018-07-20T19:36:04.005Z,99617.61
2018-07-20T19:38:38.215Z,99616.25
2018-07-20T19:41:11.316Z,99617.91
2018-07-20T19:43:45.219Z,99619.27
2018-07-20T19:46:17.867Z,99623.34
2018-07-20T19:48:51.686Z,99615.48
2018-07-20T19:51:24.399Z,99614.41
2018-07-20T19:53:57.861Z,99619.83
2018-07-20T19:56:31.459Z,99623.62
2018-07-20T19:59:04.748Z,99621.12
2018-07-20T20:01:36.932Z,99623.28
2018-07-20T20:04:08.323Z,99622.72
2018-07-20T20:06:58.080Z,99621.34
2018-07-20T20:09:31.837Z,99622.70
2018-07-20T20:12:03.442Z,99617.02
2018-07-20T20:14:50.604Z,99626.73
2018-07-20T20:17:32.831Z,99622.63
2018-07-20T20:25:58.809Z,99618.53
2018-07-20T20:28:30.929Z,99616.33
2018-07-20T20:31:17.551Z,99620.63
2018-07-20T20:34:02.012Z,99622.01
2018-07-20T20:36:44.354Z,99624.72
2018-07-20T20:39:18.157Z,99621.20
2018-07-20T20:42:00.533Z,99619.55
2018-07-20T20:44:33.148Z,99622.25
2018-07-20T20:50:04.350Z,99622.52
2018-07-20T20:52:46.704Z,99622.02
2018-07-20T20:55:39.099Z,99625.49
2018-07-20T20:58:28.204Z,99629.23
2018-07-20T21:00:59.995Z,99625.11
2018-07-20T21:03:31.711Z,99623.97
2018-07-20T21:06:03.768Z,99616.84
2018-07-20T21:08:43.192Z,99624.62
2018-07-20T21:11:13.420Z,99623.80
2018-07-20T21:16:49.774Z,99618.33
2018-07-20T21:19:34.257Z,99614.51
2018-07-20T21:22:06.389Z,99615.64
2018-07-20T21:24:38.231Z,99612.11
2018-07-20T21:27:10.465Z,99614.81
2018-07-20T21:29:41.699Z,99613.42
2018-07-20T21:32:13.627Z,99613.16
2018-07-20T21:34:45.600Z,99621.80
2018-07-20T21:37:19.205Z,99618.47
2018-07-20T21:39:51.229Z,99623.55
2018-07-20T21:42:30.850Z,99624.96
2018-07-20T21:45:00.738Z,99623.62
2018-07-20T21:47:30.635Z,99624.88
2018-07-20T21:50:00.516Z,99622.40
2018-07-20T21:52:30.438Z,99622.30
2018-07-20T21:58:08.623Z,99630.28
2018-07-20T22:00:40.655Z,99625.78
2018-07-20T22:03:10.556Z,99625.89
2018-07-20T22:05:40.418Z,99623.88
2018-07-20T22:08:10.377Z,99628.59
2018-07-20T22:10:40.230Z,99626.95
2018-07-20T22:13:10.161Z,99625.78
2018-07-20T22:15:40.260Z,99625.69
2018-07-20T22:18:10.188Z,99623.23
2018-07-20T22:20:40.274Z,99624.50
2018-07-20T22:23:10.160Z,99629.84
2018-07-20T22:25:40.034Z,99626.00
2018-07-20T22:28:09.876Z,99621.80
2018-07-20T22:30:39.718Z,99620.97
2018-07-20T22:33:09.627Z,99615.55
2018-07-20T22:35:41.515Z,99616.26
2018-07-20T22:38:11.429Z,99620.11
2018-07-20T22:40:41.322Z,99627.80
2018-07-20T22:43:11.171Z,99626.34
2018-07-20T22:45:41.098Z,99627.08
2018-07-20T22:48:11.090Z,99628.64
2018-07-20T22:50:40.985Z,99624.86
2018-07-20T22:53:10.928Z,99621.09
2018-07-20T22:55:40.810Z,99615.91
2018-07-20T22:58:10.702Z,99611.86
2018-07-20T23:00:40.685Z,99610.23
2018-07-20T23:03:10.523Z,99611.55
2018-07-20T23:05:40.369Z,99612.00
2018-07-20T23:08:28.201Z,99606.84
2018-07-20T23:10:58.115Z,99619.42
2018-07-20T23:13:28.025Z,99616.67
2018-07-20T23:15:57.987Z,99614.23
2018-07-20T23:18:28.321Z,99613.60
2018-07-20T23:24:18.598Z,99606.50
2018-07-20T23:26:48.534Z,99605.97
2018-07-20T23:29:18.423Z,99614.85
2018-07-20T23:34:42.219Z,99607.94
2018-07-20T23:37:16.536Z,99615.10
2018-07-20T23:45:42.262Z,99623.93
2018-07-20T23:48:12.155Z,99625.59
2018-07-20T23:50:42.031Z,99627.22
2018-07-20T23:53:11.902Z,99627.46
2018-07-20T23:55:41.777Z,99623.56
2018-07-20T23:58:11.670Z,99626.06
